createdAt,value
2023-04-16T00:01:42.505Z,72.91
2023-04-16T00:04:09.455Z,72.71
2023-04-16T00:06:36.476Z,72.92
2023-04-16T00:09:21.748Z,73.34
2023-04-16T00:19:05.153Z,74.84
2023-04-16T00:21:31.955Z,76.06
2023-04-16T00:23:58.543Z,75.70
2023-04-16T00:26:25.330Z,75.78
2023-04-16T00:28:51.901Z,75.03
2023-04-16T00:31:18.602Z,75.37
2023-04-16T00:33:45.258Z,75.00
2023-04-16T00:36:11.854Z,74.85
2023-04-16T00:38:38.459Z,74.42
2023-04-16T00:41:05.142Z,73.68
2023-04-16T00:43:31.766Z,74.18
2023-04-16T01:08:37.337Z,73.88
2023-04-16T01:21:38.366Z,76.11
2023-04-16T01:24:05.408Z,76.28
2023-04-16T01:26:32.062Z,75.95
2023-04-16T01:28:59.444Z,76.54
2023-04-16T01:31:26.309Z,78.21
2023-04-16T01:33:52.927Z,78.97
2023-04-16T01:39:43.910Z,79.52
2023-04-16T01:42:10.947Z,78.55
2023-04-16T01:44:37.504Z,78.18
2023-04-16T01:47:04.337Z,78.16
2023-04-16T01:49:49.797Z,76.41
2023-04-16T01:52:16.656Z,78.09
2023-04-16T01:54:43.227Z,77.03
2023-04-16T01:57:09.918Z,76.26
2023-04-16T01:59:36.593Z,75.97
2023-04-16T02:02:11.457Z,75.65
2023-04-16T02:04:42.676Z,74.98
2023-04-16T02:07:09.889Z,75.22
2023-04-16T02:09:38.171Z,75.53
2023-04-16T02:12:05.105Z,76.03
2023-04-16T02:14:32.475Z,74.75
2023-04-16T02:17:17.778Z,74.11
2023-04-16T02:20:05.799Z,74.21
2023-04-16T02:22:32.495Z,74.57
2023-04-16T02:24:59.114Z,74.47
2023-04-16T02:27:26.010Z,73.90
2023-04-16T02:30:43.745Z,73.25
2023-04-16T02:33:39.381Z,73.30
2023-04-16T02:36:25.824Z,74.07
2023-04-16T02:38:52.394Z,74.43
2023-04-16T02:41:18.944Z,74.95
2023-04-16T02:43:45.487Z,75.24
2023-04-16T02:46:12.243Z,75.16
2023-04-16T02:48:38.922Z,74.40
2023-04-16T02:51:21.706Z,75.21
2023-04-16T02:53:48.309Z,74.94
2023-04-16T02:56:14.898Z,73.69
2023-04-16T02:58:41.427Z,73.12
2023-04-16T03:01:45.004Z,72.89
2023-04-16T03:04:37.093Z,72.87
2023-04-16T03:07:03.784Z,72.70
2023-04-16T03:09:30.323Z,72.95
2023-04-16T03:11:56.901Z,73.03
2023-04-16T03:14:23.534Z,72.95
2023-04-16T03:16:50.094Z,72.97
2023-04-16T03:22:12.186Z,72.49
2023-04-16T03:24:38.766Z,72.67
2023-04-16T03:27:05.357Z,72.50
2023-04-16T03:30:15.523Z,72.45
2023-04-16T03:33:19.986Z,72.97
2023-04-16T03:35:46.655Z,72.61
2023-04-16T03:38:13.255Z,72.76
2023-04-16T03:40:39.812Z,72.50
2023-04-16T03:43:06.356Z,72.64
2023-04-16T03:45:32.914Z,72.88
2023-04-16T03:51:01.161Z,72.60
2023-04-16T03:53:27.744Z,72.75
2023-04-16T03:55:54.309Z,72.82
2023-04-16T03:58:46.622Z,72.69
2023-04-16T04:01:41.317Z,72.59
2023-04-16T04:04:28.361Z,73.14
2023-04-16T04:09:30.385Z,74.11
2023-04-16T04:12:03.078Z,73.96
2023-04-16T04:25:12.841Z,72.85
2023-04-16T04:27:42.232Z,72.93
2023-04-16T04:40:50.599Z,72.66
2023-04-16T04:43:19.192Z,72.36
2023-04-16T04:50:56.192Z,74.26
2023-04-16T04:53:22.832Z,74.68
2023-04-16T04:56:13.049Z,74.05
2023-04-16T04:58:41.065Z,73.32
2023-04-16T05:01:07.718Z,73.18
2023-04-16T05:04:24.126Z,72.87
2023-04-16T05:10:11.745Z,73.04
2023-04-16T05:12:38.404Z,73.01
2023-04-16T05:15:05.447Z,72.29
2023-04-16T05:17:32.086Z,72.60
2023-04-16T05:19:58.671Z,72.20
2023-04-16T05:22:25.281Z,71.73
2023-04-16T05:24:51.952Z,70.74
2023-04-16T05:27:19.698Z,70.59
2023-04-16T05:29:48.544Z,70.30
2023-04-16T05:32:15.360Z,70.33
2023-04-16T05:34:41.985Z,70.13
2023-04-16T05:37:09.533Z,70.20
2023-04-16T05:39:56.662Z,69.81
2023-04-16T05:42:23.218Z,69.51
2023-04-16T05:44:51.104Z,70.05
2023-04-16T05:47:17.701Z,69.95
2023-04-16T05:49:44.316Z,71.23
2023-04-16T05:52:11.009Z,70.54
2023-04-16T05:55:30.935Z,70.65
2023-04-16T05:58:16.457Z,72.34
2023-04-16T06:00:43.096Z,73.81
2023-04-16T06:03:09.702Z,74.45
2023-04-16T06:05:36.581Z,73.10
2023-04-16T06:08:03.196Z,74.12
2023-04-16T06:10:29.852Z,74.76
2023-04-16T06:12:56.528Z,73.95
2023-04-16T06:15:23.160Z,74.30
2023-04-16T06:17:50.913Z,74.21
2023-04-16T06:20:17.586Z,74.97
2023-04-16T06:22:44.227Z,75.06
2023-04-16T06:25:10.952Z,73.53
2023-04-16T06:27:37.571Z,73.09
2023-04-16T06:30:04.528Z,71.70
2023-04-16T06:32:31.278Z,69.99
2023-04-16T06:34:58.833Z,68.65
2023-04-16T06:37:25.470Z,68.10
2023-04-16T06:39:52.057Z,68.94
2023-04-16T06:42:20.365Z,69.59
2023-04-16T06:44:49.912Z,69.00
2023-04-16T06:47:16.556Z,68.42
2023-04-16T06:49:49.430Z,68.49
2023-04-16T06:52:16.160Z,68.58
2023-04-16T06:54:42.823Z,68.60
2023-04-16T06:57:09.533Z,67.72
2023-04-16T06:59:39.576Z,67.84
2023-04-16T07:02:09.962Z,68.17
2023-04-16T07:04:36.743Z,68.26
2023-04-16T07:07:03.391Z,69.86
2023-04-16T07:09:29.999Z,68.75
2023-04-16T07:11:56.642Z,68.59
2023-04-16T07:14:23.282Z,68.25
2023-04-16T07:16:49.931Z,68.85
2023-04-16T07:19:16.588Z,67.80
2023-04-16T07:21:46.190Z,67.34
2023-04-16T07:24:12.806Z,67.89
2023-04-16T07:26:39.503Z,68.17
2023-04-16T07:29:06.564Z,67.13
2023-04-16T07:31:33.243Z,67.60
2023-04-16T07:33:59.883Z,67.28
2023-04-16T07:36:28.436Z,66.01
2023-04-16T07:39:01.136Z,64.35
2023-04-16T07:41:29.633Z,65.14
2023-04-16T07:43:56.240Z,64.97
2023-04-16T07:46:24.739Z,65.26
2023-04-16T07:51:27.405Z,63.98
2023-04-16T07:53:54.044Z,64.49
2023-04-16T07:56:20.945Z,63.84
2023-04-16T07:58:58.326Z,64.67
2023-04-16T08:01:29.874Z,65.64
2023-04-16T08:03:59.751Z,65.00
2023-04-16T08:06:26.831Z,66.31
2023-04-16T08:08:53.419Z,65.86
2023-04-16T08:11:20.673Z,64.83
2023-04-16T08:13:49.010Z,64.79
2023-04-16T08:16:18.343Z,65.46
2023-04-16T08:18:44.895Z,64.47
2023-04-16T08:21:11.479Z,64.26
2023-04-16T08:23:38.235Z,63.57
2023-04-16T08:26:09.110Z,62.20
2023-04-16T08:28:35.932Z,61.89
2023-04-16T08:31:02.625Z,61.31
2023-04-16T08:33:29.308Z,62.81
2023-04-16T08:35:55.939Z,61.65
2023-04-16T08:38:22.508Z,60.61
2023-04-16T08:40:49.301Z,61.35
2023-04-16T08:43:17.686Z,62.75
2023-04-16T08:45:47.419Z,62.63
2023-04-16T08:48:15.180Z,64.30
2023-04-16T08:50:43.576Z,62.17
2023-04-16T08:53:16.582Z,61.85
2023-04-16T08:55:47.673Z,61.20
2023-04-16T08:58:22.847Z,60.91
2023-04-16T09:00:49.833Z,60.11
2023-04-16T09:03:16.563Z,61.74
2023-04-16T09:05:44.042Z,60.89
2023-04-16T09:08:10.773Z,60.05
2023-04-16T09:13:27.177Z,58.69
2023-04-16T09:15:54.959Z,57.97
2023-04-16T09:18:22.007Z,58.13
2023-04-16T09:20:52.349Z,59.29
2023-04-16T09:23:18.965Z,58.27
2023-04-16T09:25:45.660Z,60.78
2023-04-16T09:28:12.402Z,59.99
2023-04-16T09:30:38.974Z,58.56
2023-04-16T09:33:22.813Z,58.10
2023-04-16T09:35:51.679Z,57.84
2023-04-16T09:38:19.832Z,56.96
2023-04-16T09:40:47.585Z,58.27
2023-04-16T09:43:18.744Z,58.44
2023-04-16T09:46:12.959Z,57.60
2023-04-16T09:48:39.627Z,57.92
2023-04-16T09:51:07.370Z,58.11
2023-04-16T09:53:33.961Z,59.87
2023-04-16T09:56:02.527Z,58.44
2023-04-16T09:58:29.662Z,57.74
2023-04-16T10:01:07.694Z,56.66
2023-04-16T10:03:36.568Z,57.56
2023-04-16T10:06:30.642Z,56.60
2023-04-16T10:08:57.372Z,57.03
2023-04-16T10:11:27.154Z,56.37
2023-04-16T10:13:57.357Z,55.29
2023-04-16T10:16:27.434Z,54.86
2023-04-16T10:21:34.955Z,54.36
2023-04-16T10:29:47.174Z,54.88
2023-04-16T10:32:28.629Z,54.12
2023-04-16T10:42:58.437Z,55.35
2023-04-16T10:45:32.890Z,53.17
2023-04-16T10:47:59.632Z,52.46
2023-04-16T10:50:37.115Z,51.76
2023-04-16T10:53:28.034Z,52.16
2023-04-16T10:56:07.864Z,52.54
2023-04-16T10:59:12.576Z,51.86
2023-04-16T11:02:29.777Z,52.91
2023-04-16T11:05:02.276Z,51.79
2023-04-16T11:07:35.082Z,50.33
2023-04-16T11:10:06.019Z,48.90
2023-04-16T11:12:50.039Z,49.71
2023-04-16T11:15:21.926Z,47.53
2023-04-16T11:18:16.646Z,43.58
2023-04-16T11:20:44.306Z,44.03
2023-04-16T11:23:13.286Z,43.30
2023-04-16T11:25:41.683Z,42.97
2023-04-16T11:28:11.920Z,42.93
2023-04-16T11:30:39.483Z,43.05
2023-04-16T11:33:16.542Z,42.66
2023-04-16T11:35:43.772Z,42.65
2023-04-16T11:38:13.505Z,42.33
2023-04-16T11:40:42.465Z,42.81
2023-04-16T11:43:19.181Z,43.53
2023-04-16T11:46:26.467Z,43.37
2023-04-16T11:49:03.620Z,42.67
2023-04-16T11:51:30.870Z,43.42
2023-04-16T11:53:58.739Z,43.67
2023-04-16T11:56:48.240Z,43.54
2023-04-16T11:59:33.413Z,40.62
2023-04-16T12:02:00.993Z,40.85
2023-04-16T12:04:29.489Z,41.04
2023-04-16T12:07:13.885Z,40.91
2023-04-16T12:09:44.222Z,43.68
2023-04-16T12:12:32.117Z,43.75
2023-04-16T12:15:11.768Z,44.08
2023-04-16T12:17:39.582Z,41.84
2023-04-16T12:20:15.741Z,42.49
2023-04-16T12:22:47.967Z,40.65
2023-04-16T12:25:16.920Z,41.65
2023-04-16T12:27:53.272Z,40.47
2023-04-16T12:30:23.149Z,40.24
2023-04-16T12:32:55.501Z,40.73
2023-04-16T12:35:34.117Z,39.80
2023-04-16T12:38:03.672Z,40.31
2023-04-16T12:40:30.511Z,39.94
2023-04-16T12:42:57.517Z,40.14
2023-04-16T12:45:24.695Z,39.22
2023-04-16T12:47:51.638Z,39.06
2023-04-16T12:50:26.222Z,38.77
2023-04-16T12:52:53.392Z,39.38
2023-04-16T12:55:22.530Z,39.97
2023-04-16T12:57:55.778Z,38.74
2023-04-16T13:00:22.802Z,39.24
2023-04-16T13:02:51.150Z,38.79
2023-04-16T13:05:20.649Z,37.87
2023-04-16T13:07:47.750Z,37.62
2023-04-16T13:10:14.414Z,37.58
2023-04-16T13:12:41.761Z,38.05
2023-04-16T13:15:24.749Z,38.61
2023-04-16T13:17:53.595Z,38.53
2023-04-16T13:20:23.166Z,39.30
2023-04-16T13:22:53.056Z,38.73
2023-04-16T13:33:26.560Z,37.62
2023-04-16T13:35:54.500Z,37.17
2023-04-16T13:38:21.348Z,38.18
2023-04-16T13:48:48.727Z,35.58
2023-04-16T13:51:16.499Z,38.00
2023-04-16T13:53:47.098Z,37.92
2023-04-16T13:56:16.628Z,40.22
2023-04-16T16:14:18.065Z,39.58
2023-04-16T16:16:46.591Z,39.53
2023-04-16T16:19:13.535Z,38.95
2023-04-16T16:21:40.330Z,39.16
2023-04-16T16:24:07.729Z,40.37
2023-04-16T16:26:34.525Z,39.80
2023-04-16T16:29:01.633Z,39.73
2023-04-16T16:31:28.362Z,40.28
2023-04-16T16:33:55.054Z,39.96
2023-04-16T16:36:24.596Z,40.39
2023-04-16T16:38:51.439Z,40.78
2023-04-16T16:41:22.237Z,40.66
2023-04-16T16:44:01.435Z,41.01
2023-04-16T16:46:31.245Z,40.85
2023-04-16T16:49:01.012Z,41.24
2023-04-16T16:51:45.868Z,41.00
2023-04-16T16:54:14.087Z,42.15
2023-04-16T16:56:41.129Z,41.09
2023-04-16T16:59:10.764Z,41.01
2023-04-16T17:01:37.869Z,41.88
2023-04-16T17:04:10.889Z,42.20
2023-04-16T17:06:38.852Z,43.18
2023-04-16T17:09:05.674Z,43.69
2023-04-16T17:11:32.248Z,42.76
2023-04-16T17:13:58.843Z,42.41
2023-04-16T17:16:25.707Z,43.87
2023-04-16T17:18:52.546Z,43.50
2023-04-16T17:21:19.264Z,44.03
2023-04-16T17:23:45.895Z,44.89
2023-04-16T17:26:15.388Z,44.24
2023-04-16T17:28:47.249Z,44.74
2023-04-16T17:31:22.700Z,44.95
2023-04-16T18:53:29.454Z,51.36
2023-04-16T18:56:07.448Z,52.27
2023-04-16T18:58:34.510Z,52.52
2023-04-16T19:01:04.863Z,52.33
2023-04-16T19:03:32.237Z,52.07
2023-04-16T20:05:55.719Z,50.58
2023-04-16T20:08:22.297Z,50.52
2023-04-16T20:10:48.863Z,50.70
2023-04-16T20:13:17.986Z,50.75
2023-04-16T20:15:45.226Z,50.46
2023-04-16T20:18:12.847Z,50.31
2023-04-16T20:20:39.430Z,49.75
2023-04-16T20:23:06.003Z,49.88
2023-04-16T20:25:32.608Z,49.88
2023-04-16T20:27:59.207Z,49.56
2023-04-16T20:30:29.410Z,49.17
2023-04-16T20:32:57.211Z,49.22
2023-04-16T20:35:23.829Z,48.86
2023-04-16T20:37:50.403Z,49.03
2023-04-16T20:40:17.210Z,48.83
2023-04-16T20:42:46.404Z,48.64
2023-04-16T20:45:13.319Z,48.52
2023-04-16T20:47:40.007Z,48.48
2023-04-16T20:50:07.320Z,47.97
2023-04-16T20:52:33.995Z,47.84
2023-04-16T20:55:00.734Z,47.56
2023-04-16T20:57:28.143Z,47.70
2023-04-16T20:59:54.709Z,47.01
2023-04-16T21:02:21.488Z,47.37
2023-04-16T21:04:48.259Z,47.88
2023-04-16T21:07:15.626Z,48.03
2023-04-16T21:09:42.231Z,48.19
2023-04-16T21:12:08.801Z,47.42
2023-04-16T21:14:35.525Z,47.82
2023-04-16T21:17:49.133Z,47.25
2023-04-16T21:21:25.022Z,47.20
2023-04-16T21:23:51.774Z,46.96
2023-04-16T21:37:34.675Z,46.56
2023-04-16T21:40:23.152Z,46.38
2023-04-16T21:42:49.739Z,46.00
2023-04-16T21:45:16.435Z,46.25
2023-04-16T21:51:15.883Z,45.74
2023-04-16T21:53:42.499Z,45.57
2023-04-16T21:56:09.051Z,45.58
2023-04-16T21:58:35.672Z,45.92
2023-04-16T22:01:02.282Z,45.79
2023-04-16T22:03:31.152Z,45.92
2023-04-16T22:06:14.180Z,46.07
2023-04-16T22:08:40.728Z,46.04
2023-04-16T22:11:07.292Z,45.86
2023-04-16T22:13:33.885Z,45.84
2023-04-16T22:19:34.851Z,46.12
2023-04-16T22:22:13.558Z,46.35
2023-04-16T22:24:40.428Z,46.46
2023-04-16T22:27:07.331Z,46.20
2023-04-16T22:29:33.902Z,46.40
2023-04-16T22:32:01.984Z,46.61
2023-04-16T22:34:28.666Z,46.90
2023-04-16T22:36:56.182Z,46.78
2023-04-16T22:39:22.808Z,47.03
2023-04-16T22:41:49.435Z,47.27
2023-04-16T22:44:16.165Z,47.29
2023-04-16T23:50:51.583Z,47.79
2023-04-16T23:53:18.121Z,47.49
2023-04-16T23:55:44.718Z,47.13
2023-04-16T23:58:11.578Z,47.16
